Time;durP1;ratioP1;P1;durP2;ratioP2;P2;SDS_P1;SDS_P2;PMS_P1;PMS_P2;Temp;Humidity;BMP_temperature;BMP_pressure;BME280_temperature;BME280_humidity;BME280_pressure;Samples;Min_cycle;Max_cycle;Signal;HPM_P1;HPM_P2
2024/02/28 00:00:44;;;;;;;;;10.00;10.00;;;;;;;;5077637;27;45357;-54
2024/02/28 00:03:09;;;;;;;;;5.00;5.00;;;;;;;;5074183;27;45385;-53
2024/02/28 00:05:34;;;;;;;;;9.00;7.00;;;;;;;;5092749;27;46452;-52
2024/02/28 00:07:59;;;;;;;;;10.00;7.33;;;;;;;;5087296;27;45384;-54
2024/02/28 00:10:24;;;;;;;;;9.67;7.67;;;;;;;;5079799;27;45393;-53
2024/02/28 00:12:50;;;;;;;;;12.00;9.00;;;;;;;;5079144;27;45627;-53
2024/02/28 00:15:15;;;;;;;;;10.00;8.33;;;;;;;;5088594;27;45925;-53
2024/02/28 00:17:41;;;;;;;;;6.33;6.33;;;;;;;;5087671;27;45408;-53
2024/02/28 00:20:07;;;;;;;;;3.67;3.67;;;;;;;;5082085;27;45377;-52
2024/02/28 00:22:32;;;;;;;;;9.00;6.33;;;;;;;;5081234;27;45541;-53
2024/02/28 00:24:57;;;;;;;;;5.00;5.00;;;;;;;;5092106;27;46255;-54
2024/02/28 00:27:22;;;;;;;;;6.33;6.33;;;;;;;;5091574;27;45350;-53
2024/02/28 00:29:47;;;;;;;;;11.00;9.00;;;;;;;;5097339;27;45294;-53
2024/02/28 00:32:12;;;;;;;;;7.67;5.67;;;;;;;;5091811;27;45607;-53
2024/02/28 00:34:38;;;;;;;;;6.67;5.67;;;;;;;;5090763;27;46414;-54
2024/02/28 00:37:03;;;;;;;;;10.00;10.00;;;;;;;;5090260;27;45549;-54
2024/02/28 00:39:28;;;;;;;;;9.00;8.33;;;;;;;;5097085;27;45343;-53
2024/02/28 00:41:53;;;;;;;;;10.33;8.67;;;;;;;;5092676;27;45181;-53
2024/02/28 00:44:19;;;;;;;;;11.67;8.00;;;;;;;;5090336;27;46284;-53
2024/02/28 00:46:44;;;;;;;;;8.00;8.00;;;;;;;;5089011;27;45476;-53
2024/02/28 00:49:09;;;;;;;;;11.00;10.00;;;;;;;;5094595;27;45415;-53
2024/02/28 00:51:36;;;;;;;;;12.00;8.67;;;;;;;;5092994;27;45278;-52
2024/02/28 00:54:01;;;;;;;;;15.33;9.33;;;;;;;;5088896;27;46411;-51
2024/02/28 00:56:27;;;;;;;;;11.00;10.33;;;;;;;;5090461;27;45464;-53
2024/02/28 00:58:52;;;;;;;;;14.67;14.00;;;;;;;;5083524;27;45630;-53
2024/02/28 01:01:17;;;;;;;;;11.33;11.33;;;;;;;;5082145;27;45462;-53
2024/02/28 01:03:43;;;;;;;;;12.00;12.00;;;;;;;;5080213;27;45600;-53
2024/02/28 01:06:08;;;;;;;;;14.33;10.33;;;;;;;;5088710;27;45340;-53
2024/02/28 01:08:33;;;;;;;;;15.67;13.00;;;;;;;;5088974;27;45604;-50
2024/02/28 01:10:59;;;;;;;;;15.00;10.00;;;;;;;;5088604;27;45415;-50
2024/02/28 01:13:24;;;;;;;;;10.00;10.00;;;;;;;;5086687;27;45504;-56
2024/02/28 01:15:49;;;;;;;;;12.00;10.00;;;;;;;;5087627;27;45466;-51
2024/02/28 01:18:14;;;;;;;;;18.00;14.00;;;;;;;;5092431;27;45371;-50
2024/02/28 01:20:39;;;;;;;;;15.00;11.00;;;;;;;;5091793;27;45433;-52
2024/02/28 01:23:05;;;;;;;;;15.33;12.00;;;;;;;;5084734;27;45419;-53
2024/02/28 01:25:30;;;;;;;;;9.33;9.33;;;;;;;;5086530;27;45429;-53
2024/02/28 01:27:57;;;;;;;;;12.67;10.33;;;;;;;;5090920;27;45406;-52
2024/02/28 01:30:22;;;;;;;;;10.67;10.67;;;;;;;;5093551;27;45541;-51
2024/02/28 01:32:48;;;;;;;;;12.33;10.67;;;;;;;;5087198;27;45665;-50
2024/02/28 01:35:13;;;;;;;;;11.00;10.67;;;;;;;;5093854;27;45247;-50
2024/02/28 01:37:38;;;;;;;;;14.33;12.33;;;;;;;;5092963;27;45333;-51
2024/02/28 01:40:04;;;;;;;;;12.00;9.33;;;;;;;;5088632;27;45296;-53
2024/02/28 01:42:30;;;;;;;;;14.67;13.00;;;;;;;;5082902;27;45940;-50
2024/02/28 01:44:55;;;;;;;;;13.00;10.33;;;;;;;;5087742;27;45358;-50
2024/02/28 01:47:20;;;;;;;;;14.00;14.00;;;;;;;;5092899;27;45296;-50
2024/02/28 01:49:46;;;;;;;;;16.00;14.00;;;;;;;;5092198;27;45431;-50
2024/02/28 01:52:12;;;;;;;;;20.67;14.33;;;;;;;;5093640;27;46436;-50
2024/02/28 01:54:38;;;;;;;;;15.00;12.67;;;;;;;;5091737;27;45312;-50
2024/02/28 01:57:03;;;;;;;;;19.33;14.33;;;;;;;;5095558;27;45356;-53
2024/02/28 01:59:29;;;;;;;;;11.67;10.00;;;;;;;;5085568;27;45519;-50
2024/02/28 02:01:55;;;;;;;;;16.67;12.33;;;;;;;;5082031;27;46217;-52
2024/02/28 02:04:20;;;;;;;;;14.67;12.67;;;;;;;;5081276;27;45420;-52
2024/02/28 02:06:47;;;;;;;;;13.00;12.00;;;;;;;;5084090;27;45528;-53
2024/02/28 02:09:12;;;;;;;;;15.00;11.00;;;;;;;;5084968;27;45439;-50
2024/02/28 02:11:38;;;;;;;;;11.00;11.00;;;;;;;;5090996;27;45120;-52
2024/02/28 02:14:03;;;;;;;;;15.00;13.33;;;;;;;;5092713;27;45427;-51
2024/02/28 02:16:29;;;;;;;;;15.33;11.00;;;;;;;;5087596;27;45212;-53
2024/02/28 02:18:55;;;;;;;;;15.67;12.67;;;;;;;;5080117;27;45208;-51
2024/02/28 02:21:23;;;;;;;;;15.00;14.00;;;;;;;;5086719;27;45329;-51
2024/02/28 02:23:49;;;;;;;;;16.33;14.33;;;;;;;;5087823;27;45409;-50
2024/02/28 02:26:14;;;;;;;;;17.67;13.33;;;;;;;;5091468;27;45416;-52
2024/02/28 02:28:39;;;;;;;;;14.33;13.67;;;;;;;;5084822;27;45510;-52
2024/02/28 02:31:04;;;;;;;;;15.00;13.33;;;;;;;;5083492;27;46382;-53
2024/02/28 02:33:29;;;;;;;;;15.67;14.00;;;;;;;;5093583;27;45384;-53
2024/02/28 02:35:55;;;;;;;;;10.67;9.67;;;;;;;;5092857;27;45343;-50
2024/02/28 02:38:20;;;;;;;;;15.00;12.33;;;;;;;;5089441;27;45554;-53
2024/02/28 02:40:49;;;;;;;;;19.67;12.33;;;;;;;;5092046;27;46432;-51
2024/02/28 02:43:14;;;;;;;;;12.67;10.33;;;;;;;;5090087;27;45337;-52
2024/02/28 02:45:39;;;;;;;;;17.00;12.33;;;;;;;;5091770;27;45317;-52
2024/02/28 02:48:05;;;;;;;;;16.33;13.67;;;;;;;;5093078;27;45429;-50
2024/02/28 02:50:30;;;;;;;;;14.00;11.67;;;;;;;;5090906;27;46315;-52
2024/02/28 02:52:55;;;;;;;;;15.00;11.00;;;;;;;;5085460;27;45627;-52
2024/02/28 02:55:20;;;;;;;;;14.00;12.33;;;;;;;;5092627;27;45289;-53
2024/02/28 02:57:46;;;;;;;;;13.00;13.00;;;;;;;;5095175;27;45377;-53
2024/02/28 03:00:11;;;;;;;;;13.33;10.00;;;;;;;;5083199;27;45651;-52
2024/02/28 03:02:39;;;;;;;;;13.67;13.33;;;;;;;;5084271;27;45448;-51
2024/02/28 03:05:04;;;;;;;;;13.33;13.33;;;;;;;;5080970;27;45468;-49
2024/02/28 03:07:29;;;;;;;;;16.33;10.00;;;;;;;;5086384;27;45605;-53
2024/02/28 03:09:55;;;;;;;;;17.00;15.67;;;;;;;;5088893;27;45384;-50
2024/02/28 03:12:21;;;;;;;;;16.67;14.00;;;;;;;;5089358;27;45563;-51
2024/02/28 03:14:46;;;;;;;;;22.00;15.33;;;;;;;;5088706;27;45259;-53
2024/02/28 03:17:12;;;;;;;;;14.00;14.00;;;;;;;;5092088;27;45191;-50
2024/02/28 03:19:37;;;;;;;;;20.33;17.33;;;;;;;;5087008;27;46127;-49
2024/02/28 03:22:03;;;;;;;;;19.00;16.00;;;;;;;;5081538;27;45528;-50
2024/02/28 03:24:28;;;;;;;;;16.00;16.00;;;;;;;;5088132;27;45506;-53
2024/02/28 03:26:53;;;;;;;;;17.33;15.67;;;;;;;;5089646;27;45417;-50
2024/02/28 03:29:18;;;;;;;;;14.00;14.00;;;;;;;;5088558;27;45402;-52
2024/02/28 03:31:43;;;;;;;;;23.00;20.00;;;;;;;;5088456;27;45278;-53
2024/02/28 03:34:09;;;;;;;;;21.67;16.67;;;;;;;;5087290;27;45257;-51
2024/02/28 03:36:35;;;;;;;;;17.00;16.00;;;;;;;;5084847;27;45590;-53
2024/02/28 03:39:00;;;;;;;;;16.33;14.00;;;;;;;;5088128;27;45412;-53
2024/02/28 03:41:25;;;;;;;;;16.00;14.00;;;;;;;;5092219;27;45384;-50
2024/02/28 03:43:50;;;;;;;;;17.00;15.33;;;;;;;;5084280;27;45416;-51
2024/02/28 03:46:15;;;;;;;;;13.00;10.00;;;;;;;;5091224;27;45351;-52
2024/02/28 03:48:40;;;;;;;;;20.67;19.00;;;;;;;;5080761;27;45543;-53
2024/02/28 03:51:06;;;;;;;;;15.33;15.33;;;;;;;;5085739;27;45475;-53
2024/02/28 03:53:32;;;;;;;;;16.00;13.00;;;;;;;;5088940;27;45502;-52
2024/02/28 03:55:57;;;;;;;;;20.67;18.33;;;;;;;;5092941;27;45495;-54
2024/02/28 03:58:22;;;;;;;;;19.00;15.00;;;;;;;;5087824;27;46352;-51
2024/02/28 04:00:47;;;;;;;;;20.00;15.00;;;;;;;;5085860;27;45452;-50
2024/02/28 04:03:13;;;;;;;;;19.33;15.00;;;;;;;;5074149;27;45282;-52
2024/02/28 04:05:39;;;;;;;;;21.67;16.00;;;;;;;;5087761;27;45607;-51
2024/02/28 04:08:04;;;;;;;;;17.33;16.33;;;;;;;;5085419;27;45590;-52
2024/02/28 04:10:29;;;;;;;;;19.33;18.00;;;;;;;;5079048;27;45267;-53
2024/02/28 04:12:54;;;;;;;;;22.67;20.33;;;;;;;;5077125;28;45381;-52
2024/02/28 04:15:20;;;;;;;;;20.00;19.00;;;;;;;;5090455;27;45328;-53
2024/02/28 04:17:45;;;;;;;;;16.00;16.00;;;;;;;;5085086;27;45588;-51
2024/02/28 04:20:13;;;;;;;;;20.67;14.00;;;;;;;;5086715;27;45438;-52
2024/02/28 04:22:39;;;;;;;;;19.00;19.00;;;;;;;;5082236;27;45365;-50
2024/02/28 04:25:04;;;;;;;;;21.00;17.67;;;;;;;;5085874;27;45215;-54
2024/02/28 04:27:29;;;;;;;;;20.00;18.33;;;;;;;;5086081;27;46796;-52
2024/02/28 04:29:55;;;;;;;;;20.33;17.33;;;;;;;;5093631;27;45148;-51
2024/02/28 04:32:20;;;;;;;;;19.00;18.00;;;;;;;;5086858;27;45414;-52
2024/02/28 04:34:45;;;;;;;;;22.33;18.33;;;;;;;;5082688;27;45388;-53
2024/02/28 04:37:10;;;;;;;;;19.00;17.33;;;;;;;;5085904;27;45255;-51
2024/02/28 04:39:36;;;;;;;;;20.67;15.33;;;;;;;;5093338;27;45498;-53
2024/02/28 04:42:01;;;;;;;;;18.33;17.33;;;;;;;;5087155;27;45398;-52
2024/02/28 04:44:26;;;;;;;;;19.67;18.33;;;;;;;;5085860;27;45419;-53
2024/02/28 04:46:51;;;;;;;;;25.67;19.67;;;;;;;;5086056;27;46895;-50
2024/02/28 04:49:16;;;;;;;;;16.33;14.33;;;;;;;;5093657;27;45427;-53
2024/02/28 04:51:42;;;;;;;;;17.00;15.00;;;;;;;;5088958;27;45869;-52
2024/02/28 04:54:07;;;;;;;;;21.67;20.33;;;;;;;;5076727;27;45374;-50
2024/02/28 04:56:32;;;;;;;;;18.33;16.67;;;;;;;;5079988;27;45336;-51
2024/02/28 04:58:57;;;;;;;;;20.67;16.33;;;;;;;;5083573;27;45473;-51
2024/02/28 05:01:22;;;;;;;;;20.00;16.67;;;;;;;;5089674;27;45363;-51
2024/02/28 05:03:48;;;;;;;;;20.33;19.33;;;;;;;;5077357;27;45524;-52
2024/02/28 05:06:13;;;;;;;;;21.67;17.67;;;;;;;;5084580;27;46059;-51
2024/02/28 05:08:38;;;;;;;;;20.67;17.33;;;;;;;;5090267;27;45248;-53
2024/02/28 05:11:03;;;;;;;;;17.67;16.33;;;;;;;;5087080;27;45423;-50
2024/02/28 05:13:28;;;;;;;;;17.00;15.00;;;;;;;;5087912;27;45424;-50
2024/02/28 05:15:54;;;;;;;;;21.33;16.33;;;;;;;;5089536;27;45473;-52
2024/02/28 05:18:19;;;;;;;;;19.33;17.00;;;;;;;;5085847;27;45450;-52
2024/02/28 05:20:45;;;;;;;;;25.67;18.00;;;;;;;;5084667;27;45350;-51
2024/02/28 05:23:10;;;;;;;;;25.33;19.00;;;;;;;;5088522;27;45382;-53
2024/02/28 05:25:35;;;;;;;;;21.00;19.33;;;;;;;;5092976;27;46353;-50
2024/02/28 05:28:00;;;;;;;;;21.00;18.33;;;;;;;;5085706;27;45357;-53
2024/02/28 05:30:25;;;;;;;;;21.67;18.00;;;;;;;;5090594;27;45560;-52
2024/02/28 05:32:50;;;;;;;;;16.67;16.00;;;;;;;;5087271;27;45600;-52
2024/02/28 05:35:16;;;;;;;;;23.33;19.67;;;;;;;;5084559;27;45476;-52
2024/02/28 05:37:41;;;;;;;;;24.00;20.67;;;;;;;;5088479;27;45340;-52
2024/02/28 05:40:07;;;;;;;;;24.00;19.33;;;;;;;;5089236;27;45664;-51
2024/02/28 05:42:32;;;;;;;;;18.33;18.00;;;;;;;;5082846;27;45164;-52
2024/02/28 05:44:57;;;;;;;;;23.33;19.33;;;;;;;;5089641;27;45532;-53
2024/02/28 05:47:23;;;;;;;;;22.33;16.67;;;;;;;;5092976;27;46310;-53
2024/02/28 05:49:48;;;;;;;;;17.67;15.33;;;;;;;;5093835;27;45411;-51
2024/02/28 05:52:13;;;;;;;;;23.67;19.33;;;;;;;;5080065;27;45653;-51
2024/02/28 05:54:38;;;;;;;;;16.67;16.33;;;;;;;;5086311;27;46390;-51
2024/02/28 05:57:03;;;;;;;;;19.33;16.00;;;;;;;;5094186;27;45336;-52
2024/02/28 05:59:29;;;;;;;;;16.00;14.33;;;;;;;;5083722;27;46320;-51
2024/02/28 06:01:54;;;;;;;;;17.33;16.00;;;;;;;;5088466;27;45568;-53
2024/02/28 06:04:19;;;;;;;;;17.67;15.33;;;;;;;;5080006;27;46282;-54
2024/02/28 06:06:44;;;;;;;;;21.67;17.33;;;;;;;;5090310;27;45249;-52
2024/02/28 06:09:10;;;;;;;;;20.67;18.00;;;;;;;;5089235;27;45445;-51
2024/02/28 06:11:35;;;;;;;;;24.00;17.33;;;;;;;;5090141;27;45253;-54
2024/02/28 06:14:02;;;;;;;;;20.00;16.00;;;;;;;;5086524;27;45506;-53
2024/02/28 06:16:27;;;;;;;;;21.33;15.67;;;;;;;;5088706;27;45705;-53
2024/02/28 06:18:52;;;;;;;;;16.00;15.67;;;;;;;;5082264;27;45706;-51
2024/02/28 06:21:18;;;;;;;;;21.67;17.00;;;;;;;;5079361;27;45432;-54
2024/02/28 06:23:43;;;;;;;;;23.33;15.00;;;;;;;;5079549;27;46643;-51
2024/02/28 06:26:14;;;;;;;;;15.33;15.00;;;;;;;;5087876;27;45466;-53
2024/02/28 06:28:42;;;;;;;;;17.33;17.00;;;;;;;;5079652;27;45306;-53
2024/02/28 06:31:11;;;;;;;;;16.67;16.00;;;;;;;;5079335;27;45340;-51
2024/02/28 06:33:36;;;;;;;;;21.00;17.00;;;;;;;;5077881;28;46166;-55
2024/02/28 06:36:01;;;;;;;;;14.67;14.67;;;;;;;;5079072;27;45282;-52
2024/02/28 06:38:27;;;;;;;;;21.00;19.67;;;;;;;;5076720;27;45211;-54
2024/02/28 06:40:52;;;;;;;;;15.33;15.00;;;;;;;;5080027;27;45259;-51
2024/02/28 06:43:17;;;;;;;;;26.00;20.00;;;;;;;;5078122;27;46264;-53
2024/02/28 06:45:42;;;;;;;;;24.00;20.00;;;;;;;;5079688;27;45461;-53
2024/02/28 06:48:07;;;;;;;;;23.00;19.00;;;;;;;;5077420;28;45461;-54
2024/02/28 06:50:33;;;;;;;;;24.33;20.67;;;;;;;;5065933;28;45351;-53
2024/02/28 06:52:58;;;;;;;;;21.67;18.00;;;;;;;;5074089;27;45438;-53
2024/02/28 06:55:23;;;;;;;;;23.67;19.67;;;;;;;;5074450;27;45406;-52
2024/02/28 06:57:48;;;;;;;;;24.33;18.67;;;;;;;;5078922;27;45578;-53
2024/02/28 07:00:18;;;;;;;;;27.00;22.33;;;;;;;;5076832;28;45536;-53
2024/02/28 07:02:43;;;;;;;;;21.67;17.67;;;;;;;;5075332;28;46132;-51
2024/02/28 07:05:09;;;;;;;;;23.33;21.00;;;;;;;;5075937;27;45388;-52
2024/02/28 07:07:34;;;;;;;;;28.33;25.00;;;;;;;;5076613;27;45602;-53
2024/02/28 07:09:59;;;;;;;;;27.33;23.00;;;;;;;;5074557;27;45508;-52
2024/02/28 07:12:24;;;;;;;;;28.33;24.00;;;;;;;;5074598;27;46057;-53
2024/02/28 07:14:50;;;;;;;;;23.33;23.33;;;;;;;;5078146;28;46320;-53
2024/02/28 07:17:15;;;;;;;;;28.00;23.00;;;;;;;;5074074;27;45618;-52
2024/02/28 07:19:40;;;;;;;;;22.00;16.33;;;;;;;;5079740;27;45685;-47
2024/02/28 07:22:05;;;;;;;;;28.00;25.67;;;;;;;;5071189;27;48268;-50
2024/02/28 07:24:31;;;;;;;;;22.75;22.25;;;;;;;;5073410;27;45485;-49
2024/02/28 07:26:57;;;;;;;;;26.33;23.33;;;;;;;;5073538;27;46098;-54
2024/02/28 07:29:22;;;;;;;;;33.25;29.00;;;;;;;;5075676;27;45592;-56
2024/02/28 07:31:49;;;;;;;;;24.00;24.00;;;;;;;;5081268;27;45559;-53
2024/02/28 07:34:14;;;;;;;;;33.00;28.33;;;;;;;;5076562;27;45406;-46
2024/02/28 07:36:40;;;;;;;;;36.67;26.33;;;;;;;;5074919;27;45580;-56
2024/02/28 07:39:05;;;;;;;;;36.33;29.00;;;;;;;;5068842;27;45579;-56
2024/02/28 07:41:32;;;;;;;;;30.67;26.33;;;;;;;;5079639;28;45339;-55
2024/02/28 07:43:57;;;;;;;;;29.00;24.00;;;;;;;;5076020;27;45816;-57
2024/02/28 07:46:22;;;;;;;;;28.00;24.33;;;;;;;;5074029;27;45483;-50
2024/02/28 07:48:47;;;;;;;;;34.67;29.67;;;;;;;;5078839;27;45476;-46
2024/02/28 07:51:13;;;;;;;;;27.00;25.33;;;;;;;;5076500;27;47369;-53
2024/02/28 07:53:38;;;;;;;;;24.00;21.00;;;;;;;;5078552;27;45453;-56
2024/02/28 07:56:03;;;;;;;;;30.67;27.00;;;;;;;;5078434;27;45620;-54
2024/02/28 07:58:28;;;;;;;;;25.50;25.50;;;;;;;;5077284;27;45485;-55
2024/02/28 08:00:54;;;;;;;;;26.00;24.50;;;;;;;;5074468;27;45414;-50
2024/02/28 08:03:19;;;;;;;;;27.00;24.00;;;;;;;;5072183;28;45587;-57
2024/02/28 08:05:44;;;;;;;;;33.00;28.00;;;;;;;;5078435;27;45771;-55
2024/02/28 08:08:10;;;;;;;;;28.25;27.50;;;;;;;;5077985;27;45429;-53
2024/02/28 08:10:36;;;;;;;;;31.67;25.67;;;;;;;;5078358;27;45424;-50
2024/02/28 08:13:01;;;;;;;;;27.33;24.33;;;;;;;;5078364;27;45369;-50
2024/02/28 08:15:27;;;;;;;;;32.67;28.67;;;;;;;;5078208;27;45437;-51
2024/02/28 08:17:52;;;;;;;;;36.25;31.75;;;;;;;;5077444;27;45318;-46
2024/02/28 08:20:17;;;;;;;;;29.50;26.50;;;;;;;;5076686;27;45366;-46
2024/02/28 08:22:42;;;;;;;;;28.25;24.75;;;;;;;;5076729;27;45489;-52
2024/02/28 08:25:11;;;;;;;;;38.75;29.50;;;;;;;;5078172;27;45384;-52
2024/02/28 08:27:36;;;;;;;;;29.00;27.33;;;;;;;;5077137;27;45654;-51
2024/02/28 08:30:02;;;;;;;;;34.33;28.67;;;;;;;;5077099;27;45700;-46
2024/02/28 08:32:28;;;;;;;;;29.67;26.67;;;;;;;;5076198;27;45346;-48
2024/02/28 08:34:54;;;;;;;;;25.67;24.67;;;;;;;;5076546;27;45609;-46
2024/02/28 08:37:19;;;;;;;;;26.33;24.67;;;;;;;;5074101;27;45349;-49
2024/02/28 08:39:44;;;;;;;;;31.67;26.00;;;;;;;;5074201;28;46279;-46
2024/02/28 08:42:09;;;;;;;;;21.67;20.67;;;;;;;;5077923;27;45289;-48
2024/02/28 08:44:34;;;;;;;;;32.00;21.67;;;;;;;;5072030;27;45394;-45
2024/02/28 08:47:00;;;;;;;;;29.67;26.33;;;;;;;;5074701;27;45537;-47
2024/02/28 08:49:26;;;;;;;;;28.00;22.33;;;;;;;;5080852;27;46121;-48
2024/02/28 08:51:51;;;;;;;;;27.33;23.67;;;;;;;;5081320;27;45724;-48
2024/02/28 08:54:16;;;;;;;;;27.33;22.67;;;;;;;;5073184;27;46688;-46
2024/02/28 08:56:41;;;;;;;;;33.33;27.67;;;;;;;;5081612;27;45357;-48
2024/02/28 08:59:07;;;;;;;;;24.33;22.00;;;;;;;;5079754;27;46040;-47
2024/02/28 09:01:34;;;;;;;;;26.67;23.33;;;;;;;;5081932;27;45481;-47
2024/02/28 09:03:59;;;;;;;;;24.00;24.00;;;;;;;;5080025;27;45670;-48
2024/02/28 09:06:24;;;;;;;;;25.33;21.67;;;;;;;;5080096;27;45651;-47
2024/02/28 09:08:49;;;;;;;;;18.67;15.33;;;;;;;;5082388;27;46838;-47
2024/02/28 09:11:14;;;;;;;;;22.67;20.33;;;;;;;;5077369;27;45463;-46
2024/02/28 09:13:39;;;;;;;;;23.33;23.00;;;;;;;;5087134;27;45504;-49
2024/02/28 09:16:05;;;;;;;;;22.00;20.33;;;;;;;;5078378;27;45345;-49
2024/02/28 09:18:30;;;;;;;;;21.67;19.33;;;;;;;;5089246;27;46395;-48
2024/02/28 09:20:55;;;;;;;;;25.33;20.67;;;;;;;;5083550;27;45429;-49
2024/02/28 09:23:21;;;;;;;;;19.33;17.67;;;;;;;;5084364;27;45385;-45
2024/02/28 09:25:46;;;;;;;;;17.67;16.33;;;;;;;;5085498;27;45344;-46
2024/02/28 09:28:13;;;;;;;;;12.00;10.00;;;;;;;;5086293;27;46471;-47
2024/02/28 09:30:38;;;;;;;;;22.33;18.33;;;;;;;;5083824;27;45619;-46
2024/02/28 09:33:04;;;;;;;;;25.67;20.67;;;;;;;;5092992;27;45339;-46
2024/02/28 09:35:29;;;;;;;;;18.00;17.33;;;;;;;;5086517;27;45447;-47
2024/02/28 09:37:54;;;;;;;;;21.67;16.33;;;;;;;;5082779;27;45289;-46
2024/02/28 09:40:19;;;;;;;;;17.33;16.00;;;;;;;;5078667;27;45577;-46
2024/02/28 09:42:51;;;;;;;;;20.00;17.33;;;;;;;;5064182;27;45543;-46
2024/02/28 09:45:16;;;;;;;;;17.00;13.33;;;;;;;;5076579;27;45494;-46
2024/02/28 09:47:42;;;;;;;;;20.00;18.00;;;;;;;;5081909;27;46133;-46
2024/02/28 09:50:07;;;;;;;;;15.50;14.50;;;;;;;;5081188;27;45315;-46
2024/02/28 09:52:32;;;;;;;;;13.33;11.33;;;;;;;;5085872;27;45364;-46
2024/02/28 09:54:58;;;;;;;;;14.00;14.00;;;;;;;;5078968;27;45410;-47
2024/02/28 09:57:28;;;;;;;;;16.67;14.33;;;;;;;;5083777;27;45459;-46
2024/02/28 09:59:54;;;;;;;;;19.33;13.33;;;;;;;;5081414;27;46428;-47
2024/02/28 10:02:20;;;;;;;;;14.00;12.67;;;;;;;;5073192;27;45240;-46
2024/02/28 10:04:45;;;;;;;;;14.67;14.67;;;;;;;;5081046;27;45519;-46
2024/02/28 10:07:13;;;;;;;;;10.67;10.67;;;;;;;;5081315;27;46296;-47
2024/02/28 10:09:39;;;;;;;;;36.33;29.00;;;;;;;;5080445;27;45464;-46
2024/02/28 10:12:04;;;;;;;;;14.67;10.67;;;;;;;;5080628;27;45476;-49
2024/02/28 10:14:30;;;;;;;;;7.00;7.00;;;;;;;;5080828;27;45341;-47
2024/02/28 10:16:55;;;;;;;;;7.00;6.67;;;;;;;;5081905;27;45688;-50
2024/02/28 10:19:20;;;;;;;;;8.33;7.33;;;;;;;;5079554;27;45447;-51
2024/02/28 10:21:46;;;;;;;;;10.67;8.67;;;;;;;;5082674;27;45460;-48
2024/02/28 10:24:12;;;;;;;;;10.00;10.00;;;;;;;;5079081;27;45425;-48
2024/02/28 10:26:44;;;;;;;;;8.00;8.00;;;;;;;;5081021;27;46471;-46
2024/02/28 10:29:10;;;;;;;;;8.67;7.00;;;;;;;;5079733;27;45314;-46
2024/02/28 10:31:35;;;;;;;;;7.33;6.67;;;;;;;;5081523;27;45612;-48
2024/02/28 10:34:01;;;;;;;;;8.00;8.00;;;;;;;;5078246;27;45476;-49
2024/02/28 10:36:29;;;;;;;;;15.00;10.00;;;;;;;;5079478;27;45530;-47
2024/02/28 10:38:55;;;;;;;;;12.33;8.67;;;;;;;;5075497;27;46394;-48
2024/02/28 10:41:20;;;;;;;;;14.67;7.67;;;;;;;;5083775;27;45492;-49
2024/02/28 10:43:48;;;;;;;;;6.33;6.33;;;;;;;;5080244;27;45346;-49
2024/02/28 10:46:14;;;;;;;;;9.00;6.67;;;;;;;;5087240;27;45530;-48
2024/02/28 10:48:39;;;;;;;;;10.33;9.67;;;;;;;;5081631;27;45340;-47
2024/02/28 10:51:04;;;;;;;;;10.00;9.33;;;;;;;;5081118;27;45315;-48
2024/02/28 10:53:35;;;;;;;;;5.33;5.33;;;;;;;;5077909;27;45482;-46
2024/02/28 10:56:02;;;;;;;;;7.00;5.33;;;;;;;;5072229;28;45727;-46
2024/02/28 10:58:29;;;;;;;;;3.33;3.33;;;;;;;;5077595;27;45500;-47
2024/02/28 11:00:55;;;;;;;;;4.67;4.67;;;;;;;;5075022;27;45553;-47
2024/02/28 11:03:21;;;;;;;;;8.00;6.33;;;;;;;;5071148;28;45665;-47
2024/02/28 11:05:46;;;;;;;;;7.67;6.00;;;;;;;;5077876;27;46330;-46
2024/02/28 11:08:22;;;;;;;;;9.00;6.33;;;;;;;;5075308;27;45917;-47
2024/02/28 11:10:47;;;;;;;;;9.67;8.67;;;;;;;;5070762;28;45336;-46
2024/02/28 11:13:26;;;;;;;;;8.00;8.00;;;;;;;;5071409;27;45455;-46
2024/02/28 11:15:51;;;;;;;;;10.33;9.00;;;;;;;;5074480;27;46387;-46
2024/02/28 11:18:17;;;;;;;;;11.00;9.67;;;;;;;;5068782;27;45485;-45
2024/02/28 11:20:43;;;;;;;;;8.00;8.00;;;;;;;;5079048;28;45386;-47
2024/02/28 11:23:09;;;;;;;;;8.00;8.00;;;;;;;;5077020;27;45536;-47
2024/02/28 11:25:34;;;;;;;;;11.67;7.67;;;;;;;;5079116;27;46030;-46
2024/02/28 11:28:00;;;;;;;;;10.00;6.00;;;;;;;;5063008;27;45535;-48
2024/02/28 11:30:25;;;;;;;;;10.00;8.00;;;;;;;;5078631;27;45994;-47
2024/02/28 11:32:53;;;;;;;;;9.00;9.00;;;;;;;;5078913;27;45518;-47
2024/02/28 11:35:18;;;;;;;;;8.00;7.00;;;;;;;;5078163;27;45413;-45
2024/02/28 11:37:44;;;;;;;;;5.00;5.00;;;;;;;;5074991;27;45402;-46
2024/02/28 11:40:10;;;;;;;;;9.33;8.67;;;;;;;;5075557;27;45366;-49
2024/02/28 11:42:36;;;;;;;;;13.67;10.67;;;;;;;;5068670;28;45457;-50
2024/02/28 11:45:05;;;;;;;;;11.00;10.33;;;;;;;;5077327;28;47989;-46
2024/02/28 11:47:30;;;;;;;;;9.33;8.00;;;;;;;;5070730;27;45370;-47
2024/02/28 11:50:02;;;;;;;;;12.00;10.00;;;;;;;;5070458;27;45463;-45
2024/02/28 11:52:28;;;;;;;;;10.33;8.33;;;;;;;;5069656;27;45349;-48
2024/02/28 11:54:53;;;;;;;;;10.33;10.00;;;;;;;;5073202;28;46909;-49
2024/02/28 11:57:19;;;;;;;;;17.00;12.00;;;;;;;;5072911;28;45347;-49
2024/02/28 11:59:45;;;;;;;;;17.00;14.33;;;;;;;;5068988;28;45341;-48
2024/02/28 12:02:14;;;;;;;;;12.00;9.00;;;;;;;;5071418;27;45402;-48
2024/02/28 12:04:42;;;;;;;;;7.00;6.33;;;;;;;;5072026;28;45435;-48
2024/02/28 12:07:13;;;;;;;;;10.00;9.00;;;;;;;;5074020;28;45488;-51
2024/02/28 12:09:40;;;;;;;;;8.00;8.00;;;;;;;;5077617;28;45367;-50
2024/02/28 12:12:06;;;;;;;;;18.00;15.00;;;;;;;;5075521;27;45595;-48
2024/02/28 12:14:32;;;;;;;;;15.00;12.67;;;;;;;;5078690;27;46503;-48
2024/02/28 12:16:57;;;;;;;;;11.33;10.00;;;;;;;;5071273;27;45629;-49
2024/02/28 12:19:23;;;;;;;;;8.33;7.67;;;;;;;;5066648;27;45454;-50
2024/02/28 12:21:49;;;;;;;;;14.33;6.33;;;;;;;;5076978;27;45485;-48
2024/02/28 12:24:14;;;;;;;;;8.00;6.33;;;;;;;;5078467;27;45704;-50
2024/02/28 12:26:39;;;;;;;;;5.67;5.67;;;;;;;;5076643;27;45400;-48
2024/02/28 12:29:04;;;;;;;;;6.00;6.00;;;;;;;;5079163;27;45501;-49
2024/02/28 12:31:30;;;;;;;;;7.67;5.67;;;;;;;;5085859;27;45516;-50
2024/02/28 12:33:55;;;;;;;;;8.00;7.00;;;;;;;;5081130;27;46090;-48
2024/02/28 12:36:20;;;;;;;;;8.00;8.00;;;;;;;;5076946;27;45476;-48
2024/02/28 12:38:46;;;;;;;;;7.33;7.00;;;;;;;;5084786;27;45429;-49
2024/02/28 12:41:11;;;;;;;;;6.33;5.00;;;;;;;;5077132;27;45461;-50
2024/02/28 12:43:36;;;;;;;;;7.33;6.00;;;;;;;;5082792;27;46134;-47
2024/02/28 12:46:02;;;;;;;;;9.00;6.67;;;;;;;;5082858;27;45378;-48
2024/02/28 12:48:27;;;;;;;;;7.00;7.00;;;;;;;;5081258;27;45431;-48
2024/02/28 12:50:53;;;;;;;;;6.00;6.00;;;;;;;;5074369;27;45276;-48
2024/02/28 12:53:18;;;;;;;;;9.33;6.00;;;;;;;;5068559;27;45300;-49
2024/02/28 12:55:44;;;;;;;;;8.00;5.00;;;;;;;;5065010;27;45425;-49
2024/02/28 12:58:10;;;;;;;;;5.67;5.67;;;;;;;;5067525;27;45464;-50
2024/02/28 13:00:35;;;;;;;;;10.33;7.67;;;;;;;;5075106;27;45474;-50
2024/02/28 13:03:00;;;;;;;;;6.00;4.00;;;;;;;;5072375;27;46415;-48
2024/02/28 13:05:25;;;;;;;;;5.00;4.00;;;;;;;;5077258;27;45338;-51
2024/02/28 13:07:50;;;;;;;;;4.00;3.00;;;;;;;;5068967;27;45385;-48
2024/02/28 13:10:16;;;;;;;;;4.67;4.00;;;;;;;;5075156;27;45307;-48
2024/02/28 13:12:41;;;;;;;;;3.00;3.00;;;;;;;;5063524;27;46164;-50
2024/02/28 13:15:07;;;;;;;;;4.00;4.00;;;;;;;;5073883;27;45278;-50
2024/02/28 13:17:32;;;;;;;;;6.00;3.00;;;;;;;;5076858;27;45533;-47
2024/02/28 13:19:58;;;;;;;;;3.67;2.67;;;;;;;;5080728;27;45457;-47
2024/02/28 13:22:23;;;;;;;;;4.00;2.33;;;;;;;;5077121;27;45340;-47
2024/02/28 13:24:48;;;;;;;;;1.67;1.67;;;;;;;;5073076;27;45489;-47
2024/02/28 13:27:14;;;;;;;;;2.67;1.67;;;;;;;;5070221;27;45420;-50
2024/02/28 13:29:39;;;;;;;;;2.00;2.00;;;;;;;;5078626;27;45442;-46
2024/02/28 13:32:04;;;;;;;;;4.33;2.00;;;;;;;;5080053;27;46037;-49
2024/02/28 13:34:29;;;;;;;;;2.67;2.67;;;;;;;;5077364;27;45456;-47
2024/02/28 13:36:55;;;;;;;;;4.00;2.00;;;;;;;;5073149;27;45458;-48
2024/02/28 13:39:23;;;;;;;;;0.67;0.67;;;;;;;;5080608;27;45307;-47
2024/02/28 13:41:51;;;;;;;;;4.67;2.33;;;;;;;;5076142;27;46895;-50
2024/02/28 13:44:17;;;;;;;;;2.00;2.00;;;;;;;;5073858;27;45442;-50
2024/02/28 13:46:42;;;;;;;;;2.33;1.67;;;;;;;;5067178;27;45474;-47
2024/02/28 13:49:07;;;;;;;;;3.00;1.67;;;;;;;;5080192;27;45455;-47
2024/02/28 13:51:32;;;;;;;;;3.67;3.67;;;;;;;;5078186;27;47322;-48
2024/02/28 13:53:58;;;;;;;;;2.67;2.67;;;;;;;;5071716;27;45389;-48
2024/02/28 13:56:23;;;;;;;;;5.00;2.67;;;;;;;;5079357;27;45445;-46
2024/02/28 13:58:48;;;;;;;;;2.67;2.67;;;;;;;;5079855;27;45528;-46
2024/02/28 14:01:13;;;;;;;;;3.00;1.67;;;;;;;;5068767;27;45615;-46
2024/02/28 14:03:38;;;;;;;;;1.67;1.67;;;;;;;;5073573;27;45448;-47
2024/02/28 14:06:04;;;;;;;;;2.33;2.33;;;;;;;;5080890;27;45431;-48
2024/02/28 14:08:29;;;;;;;;;2.00;2.00;;;;;;;;5080384;27;45448;-46
2024/02/28 14:10:54;;;;;;;;;3.67;3.67;;;;;;;;5078722;27;46470;-49
2024/02/28 14:13:19;;;;;;;;;5.00;3.00;;;;;;;;5077094;27;45448;-48